createdAt,value
2023-05-07T00:00:16.856Z,14.20
2023-05-07T00:02:49.735Z,14.20
2023-05-07T00:05:20.210Z,14.20
2023-05-07T00:07:50.238Z,14.20
2023-05-07T00:10:20.067Z,14.20
2023-05-07T00:12:49.466Z,14.20
2023-05-07T00:15:19.014Z,14.20
2023-05-07T00:17:58.003Z,14.20
2023-05-07T00:20:27.221Z,14.00
2023-05-07T00:22:56.848Z,13.90
2023-05-07T00:25:25.814Z,14.00
2023-05-07T00:27:54.521Z,13.90
2023-05-07T00:30:23.229Z,13.90
2023-05-07T00:32:53.217Z,14.00
2023-05-07T00:35:22.084Z,14.00
2023-05-07T00:37:51.012Z,14.00
2023-05-07T00:40:19.835Z,14.00
2023-05-07T00:42:50.038Z,14.00
2023-05-07T00:45:19.099Z,13.90
2023-05-07T00:47:48.044Z,13.90
2023-05-07T00:50:18.337Z,13.90
2023-05-07T00:52:46.877Z,13.90
2023-05-07T00:55:15.801Z,14.00
2023-05-07T00:57:46.406Z,14.00
2023-05-07T01:00:19.418Z,14.00
2023-05-07T01:02:50.534Z,14.00
2023-05-07T01:05:24.805Z,13.90
2023-05-07T01:07:55.784Z,14.00
2023-05-07T01:10:26.130Z,14.00
2023-05-07T01:12:56.776Z,14.00
2023-05-07T01:15:25.919Z,14.00
2023-05-07T01:17:55.866Z,14.10
2023-05-07T01:20:27.325Z,14.00
2023-05-07T01:23:01.970Z,14.00
2023-05-07T01:25:32.149Z,14.00
2023-05-07T01:28:02.726Z,14.00
2023-05-07T01:30:32.713Z,14.00
2023-05-07T01:33:06.866Z,14.00
2023-05-07T01:35:42.562Z,14.10
2023-05-07T01:38:13.513Z,14.00
2023-05-07T01:40:44.334Z,13.90
2023-05-07T01:43:13.940Z,14.00
2023-05-07T01:45:45.528Z,13.90
2023-05-07T01:48:18.316Z,13.90
2023-05-07T01:50:47.676Z,13.90
2023-05-07T01:53:19.165Z,13.90
2023-05-07T01:55:48.360Z,14.00
2023-05-07T01:58:17.208Z,13.90
2023-05-07T02:00:46.504Z,13.90
2023-05-07T02:03:15.560Z,13.80
2023-05-07T02:05:44.346Z,13.80
2023-05-07T02:08:15.777Z,13.80
2023-05-07T02:10:49.802Z,13.80
2023-05-07T02:13:18.754Z,13.90
2023-05-07T02:15:51.608Z,13.90
2023-05-07T02:18:20.335Z,13.80
2023-05-07T02:20:49.946Z,13.80
2023-05-07T02:23:18.517Z,13.80
2023-05-07T02:25:48.595Z,13.80
2023-05-07T02:28:18.105Z,13.80
2023-05-07T02:30:46.805Z,13.80
2023-05-07T02:33:15.312Z,13.80
2023-05-07T02:35:43.869Z,13.80
2023-05-07T02:38:12.530Z,13.70
2023-05-07T02:40:41.262Z,13.70
2023-05-07T02:43:11.505Z,13.70
2023-05-07T02:45:40.280Z,13.70
2023-05-07T02:48:08.857Z,13.70
2023-05-07T02:50:37.603Z,13.50
2023-05-07T02:53:06.183Z,13.70
2023-05-07T02:55:34.737Z,13.70
2023-05-07T02:58:03.768Z,13.70
2023-05-07T03:00:34.206Z,13.70
2023-05-07T03:03:02.679Z,13.60
2023-05-07T03:05:31.622Z,13.60
2023-05-07T03:08:00.139Z,13.60
2023-05-07T03:10:28.525Z,13.60
2023-05-07T03:12:57.697Z,13.50
2023-05-07T03:15:26.237Z,13.50
2023-05-07T03:17:56.673Z,13.50
2023-05-07T03:20:25.343Z,13.40
2023-05-07T03:22:54.124Z,13.40
2023-05-07T03:25:22.815Z,13.40
2023-05-07T03:27:51.295Z,13.30
2023-05-07T03:30:21.241Z,13.30
2023-05-07T03:32:50.049Z,13.30
2023-05-07T03:35:20.282Z,13.30
2023-05-07T03:37:48.899Z,13.30
2023-05-07T03:40:17.871Z,13.30
2023-05-07T03:42:46.643Z,13.20
2023-05-07T03:45:15.325Z,13.20
2023-05-07T03:47:44.083Z,13.20
2023-05-07T03:50:15.333Z,13.20
2023-05-07T03:52:46.376Z,13.20
2023-05-07T03:55:15.035Z,13.20
2023-05-07T03:57:43.540Z,13.20
2023-05-07T04:00:14.418Z,13.20
2023-05-07T04:02:42.995Z,13.10
2023-05-07T04:05:11.679Z,13.00
2023-05-07T04:07:40.138Z,13.00
2023-05-07T04:10:12.164Z,13.00
2023-05-07T04:12:41.488Z,13.00
2023-05-07T04:15:11.243Z,12.90
2023-05-07T04:17:39.714Z,12.90
2023-05-07T04:20:12.138Z,12.90
2023-05-07T04:22:41.204Z,12.90
2023-05-07T04:25:12.787Z,13.00
2023-05-07T04:27:41.594Z,13.00
2023-05-07T04:30:12.396Z,13.00
2023-05-07T04:32:41.255Z,13.00
2023-05-07T04:35:10.300Z,13.10
2023-05-07T04:37:39.092Z,13.10
2023-05-07T04:40:12.201Z,13.10
2023-05-07T04:42:41.759Z,13.20
2023-05-07T04:45:11.713Z,13.20
2023-05-07T04:47:40.745Z,13.20
2023-05-07T04:50:10.761Z,13.20
2023-05-07T04:52:39.513Z,13.30
2023-05-07T04:55:10.865Z,13.30
2023-05-07T04:57:40.686Z,13.30
2023-05-07T05:00:11.342Z,13.40
2023-05-07T05:02:40.203Z,13.40
2023-05-07T05:05:10.069Z,13.40
2023-05-07T05:07:38.709Z,13.40
2023-05-07T05:10:10.573Z,13.50
2023-05-07T05:12:39.258Z,13.50
2023-05-07T05:15:11.530Z,13.50
2023-05-07T05:17:41.164Z,13.50
2023-05-07T05:20:12.139Z,13.60
2023-05-07T05:22:41.185Z,13.60
2023-05-07T05:25:12.259Z,13.60
2023-05-07T05:27:41.013Z,13.70
2023-05-07T05:30:10.907Z,13.80
2023-05-07T05:32:39.672Z,13.80
2023-05-07T05:35:09.356Z,13.80
2023-05-07T05:37:38.026Z,13.80
2023-05-07T05:40:08.503Z,13.80
2023-05-07T05:42:38.659Z,13.80
2023-05-07T05:45:09.093Z,13.80
2023-05-07T05:47:37.710Z,13.80
2023-05-07T05:50:08.030Z,14.00
2023-05-07T05:52:36.745Z,14.00
2023-05-07T05:55:05.950Z,14.10
2023-05-07T05:57:34.999Z,14.10
2023-05-07T06:00:07.717Z,14.30
2023-05-07T06:02:36.831Z,14.40
2023-05-07T06:05:07.032Z,14.60
2023-05-07T06:07:35.763Z,14.80
2023-05-07T06:10:06.230Z,15.00
2023-05-07T06:12:35.312Z,15.10
2023-05-07T06:15:06.212Z,15.40
2023-05-07T06:17:36.028Z,15.60
2023-05-07T06:20:05.066Z,15.70
2023-05-07T06:22:33.660Z,15.90
2023-05-07T06:25:02.553Z,16.10
2023-05-07T06:27:31.024Z,16.30
2023-05-07T06:29:59.711Z,16.60
2023-05-07T06:32:29.706Z,16.80
2023-05-07T06:34:58.329Z,17.00
2023-05-07T06:37:27.001Z,17.20
2023-05-07T06:39:56.046Z,17.40
2023-05-07T06:42:25.519Z,17.50
2023-05-07T06:44:54.072Z,17.90
2023-05-07T06:47:22.633Z,18.20
2023-05-07T06:49:53.002Z,18.50
2023-05-07T06:52:21.482Z,18.70
2023-05-07T06:54:49.977Z,18.90
2023-05-07T06:57:18.470Z,19.20
2023-05-07T06:59:47.021Z,19.40
2023-05-07T07:02:18.098Z,19.50
2023-05-07T07:04:47.760Z,19.60
2023-05-07T07:07:18.482Z,19.90
2023-05-07T07:09:47.049Z,20.20
2023-05-07T07:12:15.762Z,20.30
2023-05-07T07:14:44.277Z,20.50
2023-05-07T07:17:12.980Z,20.60
2023-05-07T07:19:41.938Z,20.70
2023-05-07T07:22:10.424Z,20.80
2023-05-07T07:24:40.430Z,20.80
2023-05-07T07:27:08.970Z,20.70
2023-05-07T07:29:37.769Z,20.80
2023-05-07T07:32:07.244Z,20.90
2023-05-07T07:34:35.956Z,21.10
2023-05-07T07:37:07.204Z,21.20
2023-05-07T07:39:36.126Z,21.50
2023-05-07T07:42:06.343Z,21.70
2023-05-07T07:44:35.217Z,21.80
2023-05-07T07:47:03.965Z,22.10
2023-05-07T07:49:32.714Z,22.40
2023-05-07T07:52:01.830Z,22.80
2023-05-07T07:54:30.531Z,23.20
2023-05-07T07:56:59.044Z,23.50
2023-05-07T07:59:29.174Z,23.80
2023-05-07T08:01:58.207Z,24.00
2023-05-07T08:04:27.002Z,24.40
2023-05-07T08:06:57.357Z,24.70
2023-05-07T08:09:26.303Z,24.80
2023-05-07T08:11:55.164Z,24.70
2023-05-07T08:14:23.711Z,24.60
2023-05-07T08:16:53.945Z,24.70
2023-05-07T08:19:22.819Z,24.90
2023-05-07T08:21:51.790Z,25.00
2023-05-07T08:24:21.062Z,25.20
2023-05-07T08:26:50.647Z,25.30
2023-05-07T08:29:19.181Z,25.50
2023-05-07T08:31:48.128Z,25.50
2023-05-07T08:34:18.176Z,25.70
2023-05-07T08:36:49.497Z,25.70
2023-05-07T08:39:19.155Z,25.70
2023-05-07T08:41:48.586Z,25.70
2023-05-07T08:44:19.241Z,25.50
2023-05-07T08:46:51.157Z,25.30
2023-05-07T08:49:21.627Z,25.20
2023-05-07T08:51:50.782Z,25.30
2023-05-07T08:54:20.975Z,25.40
2023-05-07T08:56:49.540Z,25.50
2023-05-07T08:59:17.953Z,25.70
2023-05-07T09:01:46.748Z,25.90
2023-05-07T09:04:15.495Z,25.90
2023-05-07T09:06:45.768Z,26.10
2023-05-07T09:09:19.809Z,26.30
2023-05-07T09:11:48.436Z,26.40
2023-05-07T09:14:16.867Z,26.70
2023-05-07T09:16:45.523Z,26.90
2023-05-07T09:19:14.101Z,27.10
2023-05-07T09:21:44.365Z,27.20
2023-05-07T09:24:13.087Z,27.20
2023-05-07T09:26:41.930Z,27.50
2023-05-07T09:29:12.867Z,27.40
2023-05-07T09:31:41.765Z,27.50
2023-05-07T09:34:10.320Z,27.60
2023-05-07T09:36:39.050Z,27.80
2023-05-07T09:39:09.090Z,28.10
2023-05-07T09:41:46.920Z,28.30
2023-05-07T09:44:16.819Z,28.40
2023-05-07T09:46:46.720Z,28.40
2023-05-07T09:49:24.255Z,28.30
2023-05-07T09:51:54.920Z,28.50
2023-05-07T09:54:25.809Z,28.60
2023-05-07T09:56:55.085Z,28.80
2023-05-07T09:59:25.449Z,28.80
2023-05-07T10:01:59.711Z,28.80
2023-05-07T10:04:28.914Z,29.00
2023-05-07T10:06:58.622Z,28.80
2023-05-07T10:09:29.428Z,28.70
2023-05-07T10:11:59.780Z,28.50
2023-05-07T10:14:30.778Z,28.40
2023-05-07T10:17:01.282Z,28.40
2023-05-07T10:19:32.081Z,28.50
2023-05-07T10:22:08.614Z,28.50
2023-05-07T10:24:40.083Z,28.20
2023-05-07T10:27:12.826Z,28.00
2023-05-07T10:29:51.782Z,27.90
2023-05-07T10:32:39.479Z,28.10
2023-05-07T10:35:18.466Z,28.20
2023-05-07T10:37:48.156Z,28.30
2023-05-07T10:40:18.762Z,28.40
2023-05-07T10:42:58.226Z,28.30
2023-05-07T10:45:28.257Z,28.50
2023-05-07T10:48:28.066Z,28.70
2023-05-07T10:51:24.220Z,28.70
2023-05-07T10:54:24.922Z,28.70
2023-05-07T10:56:54.837Z,28.90
2023-05-07T10:59:44.180Z,29.00
2023-05-07T11:02:15.416Z,29.00
2023-05-07T11:04:44.287Z,28.80
2023-05-07T11:07:33.013Z,28.90
2023-05-07T11:10:05.803Z,28.90
2023-05-07T11:13:05.832Z,28.80
2023-05-07T11:15:53.476Z,28.70
2023-05-07T11:18:22.342Z,28.60
2023-05-07T11:20:59.939Z,28.60
2023-05-07T11:24:01.006Z,28.70
2023-05-07T11:26:32.668Z,28.70
2023-05-07T11:29:03.047Z,28.80
2023-05-07T11:31:32.041Z,28.80
2023-05-07T11:34:01.286Z,28.70
2023-05-07T11:36:35.359Z,28.80
2023-05-07T11:39:04.469Z,29.00
2023-05-07T11:41:38.425Z,28.80
2023-05-07T11:44:08.952Z,28.70
2023-05-07T11:46:44.889Z,28.50
2023-05-07T11:49:13.807Z,28.10
2023-05-07T11:51:43.465Z,28.00
2023-05-07T11:54:14.845Z,28.30
2023-05-07T11:56:43.518Z,28.60
2023-05-07T11:59:13.682Z,28.80
2023-05-07T12:01:42.808Z,28.80
2023-05-07T12:04:11.725Z,29.10
2023-05-07T12:06:40.981Z,29.30
2023-05-07T12:09:12.695Z,29.20
2023-05-07T12:11:42.202Z,29.30
2023-05-07T12:14:12.643Z,29.50
2023-05-07T12:16:42.951Z,29.60
2023-05-07T12:19:15.729Z,29.60
2023-05-07T12:21:45.191Z,29.50
2023-05-07T12:24:13.930Z,29.40
2023-05-07T12:26:43.159Z,29.30
2023-05-07T12:29:13.224Z,28.90
2023-05-07T12:31:43.991Z,28.70
2023-05-07T12:34:14.084Z,28.50
2023-05-07T12:36:43.363Z,28.30
2023-05-07T12:39:12.156Z,28.30
2023-05-07T12:41:56.317Z,28.20
2023-05-07T12:44:27.627Z,28.30
2023-05-07T12:46:56.537Z,28.40
2023-05-07T12:49:26.500Z,28.40
2023-05-07T12:51:56.702Z,28.20
2023-05-07T12:54:32.720Z,27.90
2023-05-07T12:57:05.746Z,27.50
2023-05-07T12:59:38.661Z,27.20
2023-05-07T13:02:08.721Z,27.20
2023-05-07T13:04:37.933Z,26.90
2023-05-07T13:07:06.504Z,26.60
2023-05-07T13:09:38.281Z,26.50
2023-05-07T13:12:09.960Z,26.50
2023-05-07T13:14:40.261Z,26.50
2023-05-07T13:17:08.901Z,26.70
2023-05-07T13:19:38.544Z,26.70
2023-05-07T13:22:07.850Z,26.70
2023-05-07T13:24:36.763Z,26.80
2023-05-07T13:27:05.413Z,26.80
2023-05-07T13:29:33.869Z,26.80
2023-05-07T13:32:03.950Z,26.80
2023-05-07T13:34:32.520Z,26.70
2023-05-07T13:37:01.188Z,26.70
2023-05-07T13:39:29.760Z,26.80
2023-05-07T13:41:58.290Z,26.80
2023-05-07T13:44:28.502Z,26.70
2023-05-07T13:46:57.024Z,26.70
2023-05-07T13:49:27.026Z,26.60
2023-05-07T13:51:55.709Z,26.60
2023-05-07T13:54:25.087Z,26.40
2023-05-07T13:56:53.621Z,26.40
2023-05-07T13:59:22.080Z,26.40
2023-05-07T14:01:51.134Z,26.40
2023-05-07T14:04:19.724Z,26.40
2023-05-07T14:06:49.820Z,26.40
2023-05-07T14:09:18.325Z,26.40
2023-05-07T14:11:48.653Z,26.30
2023-05-07T14:14:17.125Z,26.20
2023-05-07T14:16:47.459Z,26.00
2023-05-07T14:19:16.944Z,25.90
2023-05-07T14:21:45.577Z,25.80
2023-05-07T14:24:24.226Z,25.70
2023-05-07T14:26:59.571Z,25.70
2023-05-07T14:29:28.061Z,25.70
2023-05-07T14:31:56.709Z,25.80
2023-05-07T14:34:25.299Z,25.80
2023-05-07T14:36:54.068Z,25.80
2023-05-07T14:39:24.347Z,25.80
2023-05-07T14:41:52.945Z,25.80
2023-05-07T14:44:22.128Z,25.60
2023-05-07T14:47:02.687Z,25.60
2023-05-07T14:49:40.348Z,25.60
2023-05-07T14:52:11.305Z,25.60
2023-05-07T14:54:43.965Z,25.60
2023-05-07T14:57:14.518Z,25.50
2023-05-07T14:59:43.355Z,25.50
2023-05-07T15:02:13.370Z,25.30
2023-05-07T15:04:47.059Z,25.30
2023-05-07T15:07:17.030Z,25.30
2023-05-07T15:09:48.264Z,25.30
2023-05-07T15:12:17.539Z,25.30
2023-05-07T15:14:46.164Z,25.20
2023-05-07T15:17:16.232Z,25.10
2023-05-07T15:19:44.864Z,25.20
2023-05-07T15:22:13.630Z,25.10
2023-05-07T15:24:43.326Z,25.10
2023-05-07T15:27:13.352Z,25.00
2023-05-07T15:29:42.002Z,25.10
2023-05-07T15:32:11.726Z,25.10
2023-05-07T15:34:40.286Z,25.10
2023-05-07T15:37:08.747Z,25.00
2023-05-07T15:39:37.244Z,25.10
2023-05-07T15:42:06.118Z,25.00
2023-05-07T15:44:36.943Z,25.10
2023-05-07T15:50:14.037Z,25.00
2023-05-07T15:52:59.000Z,25.00
2023-05-07T15:55:27.730Z,24.90
2023-05-07T15:57:56.988Z,24.90
2023-05-07T16:00:29.328Z,25.00
2023-05-07T16:02:58.081Z,25.00
2023-05-07T16:05:26.873Z,25.00
2023-05-07T16:07:57.946Z,24.50
2023-05-07T16:10:26.826Z,23.80
2023-05-07T16:12:55.942Z,23.30
2023-05-07T16:15:26.847Z,23.00
2023-05-07T16:17:58.458Z,22.60
2023-05-07T16:20:31.136Z,22.30
2023-05-07T16:23:00.429Z,22.20
2023-05-07T16:25:29.136Z,22.00
2023-05-07T16:27:57.876Z,21.90
2023-05-07T16:30:28.486Z,21.80
2023-05-07T16:32:57.152Z,21.70
2023-05-07T16:35:25.654Z,21.50
2023-05-07T16:37:54.380Z,21.30
2023-05-07T16:40:22.914Z,21.30
2023-05-07T16:42:53.461Z,21.20
2023-05-07T16:45:23.685Z,21.10
2023-05-07T16:47:53.931Z,21.00
2023-05-07T16:50:22.509Z,20.80
2023-05-07T16:52:51.400Z,20.80
2023-05-07T16:55:20.044Z,20.90
2023-05-07T16:57:48.933Z,21.00
2023-05-07T17:00:18.180Z,21.00
2023-05-07T17:02:47.269Z,21.00
2023-05-07T17:05:17.609Z,21.00
2023-05-07T17:07:46.091Z,20.80
2023-05-07T17:10:14.610Z,20.70
2023-05-07T17:12:43.608Z,20.70
2023-05-07T17:15:13.551Z,20.60
2023-05-07T17:17:42.684Z,20.30
2023-05-07T17:20:13.848Z,20.10
2023-05-07T17:22:44.165Z,19.60
2023-05-07T17:25:14.871Z,19.10
2023-05-07T17:27:45.204Z,18.70
2023-05-07T17:30:15.849Z,18.60
2023-05-07T17:32:44.815Z,18.50
2023-05-07T17:35:13.371Z,18.50
2023-05-07T17:37:47.119Z,18.40
2023-05-07T17:40:16.610Z,18.30
2023-05-07T17:42:45.090Z,18.20
2023-05-07T17:45:14.155Z,18.10
2023-05-07T17:47:43.893Z,17.90
2023-05-07T17:50:13.904Z,17.70
2023-05-07T17:52:44.578Z,17.50
2023-05-07T17:55:13.430Z,17.20
2023-05-07T17:57:42.274Z,16.90
2023-05-07T18:00:12.914Z,16.80
2023-05-07T18:02:42.315Z,16.70
2023-05-07T18:05:11.265Z,16.80
2023-05-07T18:07:39.954Z,16.80
2023-05-07T18:10:12.247Z,16.90
2023-05-07T18:12:41.269Z,16.90
2023-05-07T18:15:11.487Z,17.00
2023-05-07T18:17:40.269Z,17.00
2023-05-07T18:20:12.110Z,17.10
2023-05-07T18:22:42.649Z,17.20
2023-05-07T18:25:13.330Z,17.20
2023-05-07T18:27:42.112Z,17.20
2023-05-07T18:30:12.729Z,17.20
2023-05-07T18:32:41.446Z,17.20
2023-05-07T18:35:11.101Z,17.20
2023-05-07T18:37:40.088Z,17.20
2023-05-07T18:40:13.677Z,17.20
2023-05-07T18:42:42.393Z,17.20
2023-05-07T18:45:12.180Z,17.20
2023-05-07T18:47:40.819Z,17.30
2023-05-07T18:50:10.864Z,17.20
2023-05-07T18:52:39.536Z,17.10
2023-05-07T18:55:11.054Z,17.00
2023-05-07T18:57:41.317Z,16.90
2023-05-07T19:00:11.985Z,16.90
2023-05-07T19:02:41.060Z,16.90
2023-05-07T19:05:10.696Z,16.90
2023-05-07T19:07:39.640Z,16.90
2023-05-07T19:10:10.947Z,16.90
2023-05-07T19:12:41.921Z,16.90
2023-05-07T19:15:11.969Z,16.80
2023-05-07T19:17:40.784Z,16.80
2023-05-07T19:20:11.401Z,16.80
2023-05-07T19:22:40.462Z,16.80
2023-05-07T19:25:10.597Z,16.70
2023-05-07T19:27:41.764Z,16.70
2023-05-07T19:30:11.710Z,16.80
2023-05-07T19:32:40.784Z,16.80
2023-05-07T19:35:10.527Z,16.70
2023-05-07T19:37:39.635Z,16.70
2023-05-07T19:40:10.142Z,16.80
2023-05-07T19:42:40.791Z,16.80
2023-05-07T19:45:11.466Z,16.80
2023-05-07T19:47:40.450Z,16.90
2023-05-07T19:50:11.135Z,16.90
2023-05-07T19:52:40.143Z,16.90
2023-05-07T19:55:10.611Z,16.80
2023-05-07T19:57:40.902Z,16.70
2023-05-07T20:00:11.350Z,16.50
2023-05-07T20:02:40.372Z,16.50
2023-05-07T20:05:11.385Z,16.40
2023-05-07T20:07:39.949Z,16.40
2023-05-07T20:10:10.749Z,16.40
2023-05-07T20:12:41.316Z,16.30
2023-05-07T20:15:12.553Z,16.30
2023-05-07T20:17:41.167Z,16.30
2023-05-07T20:20:11.872Z,16.30
2023-05-07T20:22:40.943Z,16.40
2023-05-07T20:25:14.046Z,16.50
2023-05-07T20:27:44.709Z,16.60
2023-05-07T20:30:15.289Z,16.60
2023-05-07T20:32:44.119Z,16.40
2023-05-07T20:35:13.304Z,16.30
2023-05-07T20:37:42.117Z,16.30
2023-05-07T20:40:12.446Z,16.20
2023-05-07T20:42:42.731Z,16.10
2023-05-07T20:45:14.209Z,16.20
2023-05-07T20:47:43.288Z,16.20
2023-05-07T20:50:12.809Z,16.40
2023-05-07T20:52:42.826Z,16.40
2023-05-07T20:55:12.192Z,16.50
2023-05-07T20:57:41.127Z,16.50
2023-05-07T21:00:13.219Z,16.50
2023-05-07T21:02:42.100Z,16.60
2023-05-07T21:05:11.377Z,16.60
2023-05-07T21:07:43.941Z,16.70
2023-05-07T21:10:12.959Z,16.70
2023-05-07T21:12:43.989Z,16.80
2023-05-07T21:15:15.256Z,16.90
2023-05-07T21:17:44.396Z,16.80
2023-05-07T21:20:15.022Z,16.80
2023-05-07T21:22:44.890Z,16.80
2023-05-07T21:25:15.410Z,16.70
2023-05-07T21:27:44.648Z,16.70
2023-05-07T21:30:17.840Z,16.60
2023-05-07T21:32:47.218Z,16.60
2023-05-07T21:35:17.169Z,16.60
2023-05-07T21:37:46.017Z,16.60
2023-05-07T21:40:15.856Z,16.50
2023-05-07T21:42:44.954Z,16.40
2023-05-07T21:45:16.158Z,16.30
2023-05-07T21:47:47.353Z,16.30
2023-05-07T21:50:16.810Z,16.40
2023-05-07T21:52:46.965Z,16.50
2023-05-07T21:55:16.218Z,16.60
2023-05-07T21:57:57.493Z,16.60
2023-05-07T22:00:36.356Z,16.50
2023-05-07T22:03:05.623Z,16.50
2023-05-07T22:05:34.820Z,16.50
2023-05-07T22:08:04.576Z,16.50
2023-05-07T22:10:34.019Z,16.60
2023-05-07T22:13:04.530Z,16.50
2023-05-07T22:15:39.664Z,16.50
2023-05-07T22:18:15.385Z,16.50
2023-05-07T22:20:44.331Z,16.40
2023-05-07T22:23:14.196Z,16.50
2023-05-07T22:25:43.298Z,16.60
2023-05-07T22:28:12.686Z,16.60
2023-05-07T22:30:44.817Z,16.50
2023-05-07T22:33:14.186Z,16.60
2023-05-07T22:35:46.202Z,16.60
2023-05-07T22:38:16.223Z,16.60
2023-05-07T22:40:46.951Z,16.60
2023-05-07T22:43:16.931Z,16.60
2023-05-07T22:45:47.865Z,16.60
2023-05-07T22:48:17.371Z,16.70
2023-05-07T22:50:47.310Z,16.60
2023-05-07T22:53:16.370Z,16.60
2023-05-07T22:55:46.566Z,16.60
2023-05-07T22:58:15.963Z,16.60
2023-05-07T23:00:44.770Z,16.60
2023-05-07T23:03:16.983Z,16.50
2023-05-07T23:05:47.603Z,16.50
2023-05-07T23:08:18.606Z,16.50
2023-05-07T23:10:48.449Z,16.50
2023-05-07T23:13:18.713Z,16.50
2023-05-07T23:15:49.550Z,16.60
2023-05-07T23:18:20.314Z,16.60
2023-05-07T23:20:49.759Z,16.50
2023-05-07T23:23:21.796Z,16.40
2023-05-07T23:25:54.188Z,16.40
2023-05-07T23:28:25.002Z,16.30
2023-05-07T23:30:54.463Z,16.40
2023-05-07T23:33:25.768Z,16.40
2023-05-07T23:36:02.689Z,16.40
2023-05-07T23:38:31.617Z,16.40
2023-05-07T23:41:01.116Z,16.40
2023-05-07T23:43:30.461Z,16.40
2023-05-07T23:46:06.938Z,16.40
2023-05-07T23:48:41.563Z,16.40
2023-05-07T23:51:10.570Z,16.30
2023-05-07T23:53:40.711Z,16.30
2023-05-07T23:56:11.455Z,16.30
2023-05-07T23:58:40.353Z,16.30
